Norwich, Connecticut
Current Conditions -  °F | °C
As of 3:56 PM on Tuesday 21 Oct 2014 (Local Time) from KGON Reporting Station
Clear Clear  
Wind Chill: 64°   Ceiling: Unl
Heat Index: 64°   Visibility: 10mi
Dew Point: 55°   Wind: 6mph
Humidity: 72%   Direction: 100°E
Pressure: 29.86"   Gusts: NA
Location:  41.53°N, 72.08°W
Report Text: KGON 211956Z 10005KT 10SM CLR 18/13 A2986 RMK AO2 SLP112 T01780128
Loading
Personal Weather Stations






























Interactive Weather Map
Tropical Storm Tracking
New forecast layout! Learn more

10-Day Weather Forecast

Advertisements
Track Severe Weather on mobile